Time;durP1;ratioP1;P1;durP2;ratioP2;P2;SDS_P1;SDS_P2;PMS_P1;PMS_P2;Temp;Humidity;BMP_temperature;BMP_pressure;BME280_temperature;BME280_humidity;BME280_pressure;Samples;Min_cycle;Max_cycle;Signal;HPM_P1;HPM_P2
2023/04/27 00:00:20;;;;;;;9.88;4.75;;;1.10;93.60;;;;;;5004584;28;20141;-71
2023/04/27 00:02:46;;;;;;;9.45;5.07;;;1.00;93.60;;;;;;5001490;28;20049;-71
2023/04/27 00:05:12;;;;;;;11.48;4.85;;;1.00;93.70;;;;;;5003818;28;20167;-72
2023/04/27 00:07:37;;;;;;;9.75;4.43;;;1.00;93.60;;;;;;5002723;28;20290;-71
2023/04/27 00:10:03;;;;;;;11.10;4.53;;;1.00;93.80;;;;;;5004040;28;20045;-71
2023/04/27 00:12:28;;;;;;;9.82;4.43;;;1.00;94.10;;;;;;5006897;28;20052;-71
2023/04/27 00:14:54;;;;;;;12.75;4.82;;;1.00;93.90;;;;;;5001143;28;20090;-71
2023/04/27 00:17:19;;;;;;;14.68;5.30;;;1.00;94.00;;;;;;5007953;28;20392;-72
2023/04/27 00:19:46;;;;;;;16.25;5.50;;;0.90;94.00;;;;;;4997694;28;20025;-72
2023/04/27 00:22:12;;;;;;;11.95;5.45;;;0.90;94.00;;;;;;5004681;28;20342;-70
2023/04/27 00:24:38;;;;;;;10.63;4.97;;;0.90;94.00;;;;;;5001882;28;20113;-70
2023/04/27 00:27:03;;;;;;;9.73;5.70;;;0.80;94.00;;;;;;4992750;28;20439;-70
2023/04/27 00:29:29;;;;;;;9.57;4.75;;;0.90;94.20;;;;;;5000361;28;20101;-72
2023/04/27 00:31:55;;;;;;;16.33;5.55;;;0.80;94.20;;;;;;5001585;28;20094;-70
2023/04/27 00:34:20;;;;;;;9.10;4.60;;;0.80;94.10;;;;;;5000948;28;20088;-70
2023/04/27 00:36:45;;;;;;;12.02;5.32;;;0.70;94.20;;;;;;5001935;28;20026;-70
2023/04/27 00:39:11;;;;;;;9.20;5.30;;;0.80;94.50;;;;;;5005455;28;20022;-71
2023/04/27 00:41:40;;;;;;;9.75;5.07;;;0.70;94.50;;;;;;5001177;28;20092;-70
2023/04/27 00:44:06;;;;;;;20.35;5.57;;;0.60;94.50;;;;;;4999639;28;20022;-70
2023/04/27 00:46:35;;;;;;;9.57;4.72;;;0.60;94.60;;;;;;5001484;28;20431;-71
2023/04/27 00:49:01;;;;;;;12.15;5.03;;;0.60;94.70;;;;;;5001518;28;20113;-71
2023/04/27 00:51:29;;;;;;;13.02;4.78;;;0.50;94.60;;;;;;4997272;28;20443;-70
2023/04/27 00:53:57;;;;;;;11.88;4.82;;;0.50;94.70;;;;;;5005017;28;20034;-70
2023/04/27 00:56:23;;;;;;;16.60;5.25;;;0.50;94.70;;;;;;5000753;28;20374;-70
2023/04/27 00:58:48;;;;;;;11.15;4.88;;;0.50;94.80;;;;;;5000649;28;20037;-71
2023/04/27 01:01:15;;;;;;;12.95;5.03;;;0.50;94.90;;;;;;4991542;28;20465;-71
2023/04/27 01:03:40;;;;;;;10.52;5.30;;;0.50;94.90;;;;;;4988555;28;20125;-71
2023/04/27 01:06:06;;;;;;;9.10;4.60;;;0.50;95.00;;;;;;4993281;28;20472;-71
2023/04/27 01:08:32;;;;;;;13.10;5.05;;;0.50;95.40;;;;;;5000641;28;20057;-70
2023/04/27 01:10:57;;;;;;;13.95;5.60;;;0.50;95.50;;;;;;4999523;28;21085;-72
2023/04/27 01:13:23;;;;;;;12.30;4.65;;;0.40;95.40;;;;;;4981281;28;20051;-71
2023/04/27 01:15:48;;;;;;;14.57;5.15;;;0.40;95.50;;;;;;4980592;28;20065;-70
2023/04/27 01:18:14;;;;;;;13.18;4.95;;;0.40;95.50;;;;;;4985714;28;20046;-71
2023/04/27 01:20:41;;;;;;;14.70;5.72;;;0.40;95.50;;;;;;4981445;28;20056;-71
2023/04/27 01:23:06;;;;;;;9.70;5.03;;;0.40;95.50;;;;;;4983940;28;20455;-71
2023/04/27 01:25:32;;;;;;;16.48;5.63;;;0.40;95.50;;;;;;4982324;28;20540;-72
2023/04/27 01:27:57;;;;;;;16.23;5.40;;;0.40;95.50;;;;;;4980992;28;20060;-73
2023/04/27 01:30:23;;;;;;;16.02;5.80;;;0.40;95.60;;;;;;4983198;28;20053;-71
2023/04/27 01:32:49;;;;;;;15.82;6.03;;;0.40;95.60;;;;;;4985215;28;20351;-73
2023/04/27 01:35:15;;;;;;;17.75;6.28;;;0.40;95.70;;;;;;4979565;28;20056;-71
2023/04/27 01:37:40;;;;;;;10.57;5.93;;;0.50;95.90;;;;;;4982825;28;20722;-71
2023/04/27 01:40:07;;;;;;;14.20;5.45;;;0.60;95.90;;;;;;4984089;28;20386;-71
2023/04/27 01:42:32;;;;;;;17.38;5.93;;;0.60;96.00;;;;;;4982987;28;20529;-71
2023/04/27 01:44:59;;;;;;;13.65;5.57;;;0.60;96.10;;;;;;4980777;28;20092;-73
2023/04/27 01:47:25;;;;;;;16.75;5.70;;;0.60;96.30;;;;;;4982451;28;20419;-70
2023/04/27 01:49:51;;;;;;;11.65;6.00;;;0.60;96.20;;;;;;4985012;28;20094;-70
2023/04/27 01:52:16;;;;;;;11.63;5.47;;;0.60;96.40;;;;;;4982879;28;20021;-71
2023/04/27 01:54:42;;;;;;;14.27;5.25;;;0.50;96.20;;;;;;4981360;28;20061;-71
2023/04/27 01:57:07;;;;;;;15.95;5.47;;;0.40;96.20;;;;;;4981061;28;20401;-70
2023/04/27 01:59:33;;;;;;;15.95;5.93;;;0.40;96.30;;;;;;5001429;28;20109;-73
2023/04/27 02:01:58;;;;;;;15.55;5.47;;;0.40;96.50;;;;;;4981285;28;20065;-73
2023/04/27 02:04:24;;;;;;;14.38;6.18;;;0.50;96.40;;;;;;4979353;28;20042;-71
2023/04/27 02:06:50;;;;;;;13.75;5.78;;;0.40;96.40;;;;;;4979707;28;20056;-71
2023/04/27 02:09:15;;;;;;;11.15;5.57;;;0.50;96.60;;;;;;4980772;28;20037;-71
2023/04/27 02:11:41;;;;;;;10.90;5.40;;;0.60;96.60;;;;;;4980755;28;20042;-70
2023/04/27 02:14:06;;;;;;;17.02;5.95;;;0.60;96.60;;;;;;4979971;28;20042;-73
2023/04/27 02:16:32;;;;;;;15.52;5.70;;;0.60;96.60;;;;;;4982139;28;20045;-72
2023/04/27 02:18:58;;;;;;;14.48;6.25;;;0.50;96.60;;;;;;4982140;28;20105;-73
2023/04/27 02:21:23;;;;;;;13.32;5.35;;;0.60;96.60;;;;;;4989805;28;20035;-71
2023/04/27 02:23:49;;;;;;;14.55;6.47;;;0.60;96.70;;;;;;4982026;28;20042;-72
2023/04/27 02:26:19;;;;;;;18.15;6.97;;;0.60;96.70;;;;;;4979442;28;20099;-71
2023/04/27 02:28:48;;;;;;;18.00;6.55;;;0.50;96.60;;;;;;4978995;28;21384;-72
2023/04/27 02:31:14;;;;;;;12.85;5.53;;;0.50;96.60;;;;;;4987175;28;20042;-73
2023/04/27 02:33:40;;;;;;;16.25;5.68;;;0.60;96.80;;;;;;4982882;28;20050;-71
2023/04/27 02:36:07;;;;;;;18.75;6.65;;;0.50;96.60;;;;;;4995062;28;20037;-71
2023/04/27 02:38:33;;;;;;;16.55;5.55;;;0.40;96.60;;;;;;4986473;28;20120;-74
2023/04/27 02:40:58;;;;;;;15.50;5.95;;;0.30;96.50;;;;;;4984532;28;20042;-72
2023/04/27 02:43:24;;;;;;;13.60;5.57;;;0.20;96.40;;;;;;4980399;28;20113;-73
2023/04/27 02:45:49;;;;;;;14.02;6.13;;;0.30;96.70;;;;;;4999524;28;20132;-72
2023/04/27 02:48:15;;;;;;;18.50;6.18;;;0.30;96.80;;;;;;4982137;28;20477;-73
2023/04/27 02:50:41;;;;;;;12.15;5.32;;;0.30;96.70;;;;;;4997391;28;20347;-74
2023/04/27 02:53:07;;;;;;;17.67;5.65;;;0.20;96.70;;;;;;4988402;28;20382;-72
2023/04/27 02:55:33;;;;;;;17.63;6.03;;;0.20;96.70;;;;;;5001572;28;20497;-74
2023/04/27 02:57:58;;;;;;;17.65;5.95;;;0.10;96.80;;;;;;4984650;28;20049;-73
2023/04/27 03:00:24;;;;;;;13.00;5.70;;;0.10;96.70;;;;;;5002850;28;20137;-74
2023/04/27 03:02:50;;;;;;;11.50;5.50;;;0.10;96.80;;;;;;4998813;28;20143;-73
2023/04/27 03:05:16;;;;;;;14.70;6.40;;;0.10;96.70;;;;;;5007803;28;20030;-72
2023/04/27 03:07:41;;;;;;;13.60;5.82;;;0.00;96.80;;;;;;5008282;28;20049;-71
2023/04/27 03:10:07;;;;;;;14.18;6.15;;;0.10;96.80;;;;;;5007980;28;20048;-72
2023/04/27 03:12:33;;;;;;;12.35;6.05;;;0.10;96.80;;;;;;5007723;28;20074;-72
2023/04/27 03:14:59;;;;;;;15.45;6.85;;;0.00;96.80;;;;;;5004445;28;20327;-72
2023/04/27 03:17:25;;;;;;;13.25;6.60;;;0.00;96.70;;;;;;5001345;28;20459;-72
2023/04/27 03:19:51;;;;;;;19.88;7.03;;;0.00;96.70;;;;;;5004423;28;20124;-73
2023/04/27 03:22:16;;;;;;;17.85;6.32;;;0.00;96.80;;;;;;5005281;28;20180;-71
2023/04/27 03:24:42;;;;;;;17.77;6.93;;;-3276.70;96.80;;;;;;5008178;28;20331;-71
2023/04/27 03:27:08;;;;;;;19.83;8.60;;;0.00;97.10;;;;;;5014021;28;20102;-71
2023/04/27 03:29:33;;;;;;;21.60;7.93;;;0.00;97.10;;;;;;5009488;28;20026;-71
2023/04/27 03:31:58;;;;;;;21.30;8.18;;;0.00;97.20;;;;;;5009395;28;20049;-72
2023/04/27 03:34:24;;;;;;;19.90;7.60;;;-3276.70;97.00;;;;;;5000962;28;20104;-72
2023/04/27 03:36:50;;;;;;;18.98;8.02;;;-3276.70;97.10;;;;;;5008308;28;20451;-71
2023/04/27 03:39:15;;;;;;;16.50;7.50;;;-3276.70;97.20;;;;;;5005060;28;20408;-71
2023/04/27 03:41:41;;;;;;;21.17;7.60;;;-3276.70;97.30;;;;;;4999092;28;20033;-71
2023/04/27 03:44:07;;;;;;;16.25;7.05;;;-3276.60;97.20;;;;;;5003988;28;20117;-71
2023/04/27 03:46:33;;;;;;;17.70;7.20;;;-3276.70;97.30;;;;;;5004893;28;20029;-71
2023/04/27 03:48:58;;;;;;;18.35;7.10;;;0.00;97.50;;;;;;5004002;28;20048;-71
2023/04/27 03:51:24;;;;;;;17.20;7.35;;;-3276.70;97.30;;;;;;4998057;28;20026;-71
2023/04/27 03:53:49;;;;;;;19.42;6.32;;;-3276.70;97.40;;;;;;4999339;28;20087;-71
2023/04/27 03:56:15;;;;;;;20.15;6.85;;;0.00;97.60;;;;;;5019404;28;20124;-72
2023/04/27 03:58:40;;;;;;;21.08;6.63;;;0.00;97.70;;;;;;4999158;28;20053;-72
2023/04/27 04:01:08;;;;;;;20.90;7.20;;;0.10;97.80;;;;;;4997957;28;20046;-72
2023/04/27 04:03:34;;;;;;;17.75;7.32;;;0.10;97.70;;;;;;4996050;28;20140;-71
2023/04/27 04:06:02;;;;;;;14.95;6.40;;;0.20;97.80;;;;;;5001028;28;20414;-71
2023/04/27 04:08:28;;;;;;;16.90;6.60;;;0.20;97.70;;;;;;5002382;28;20394;-71
2023/04/27 04:10:55;;;;;;;16.33;6.72;;;0.20;97.60;;;;;;5005330;28;20088;-71
2023/04/27 04:13:21;;;;;;;20.83;7.45;;;0.10;97.60;;;;;;5015933;28;20045;-71
2023/04/27 04:15:46;;;;;;;24.15;7.85;;;0.10;97.60;;;;;;4994959;28;20446;-71
2023/04/27 04:18:12;;;;;;;17.33;7.50;;;0.10;97.60;;;;;;4996229;28;20037;-71
2023/04/27 04:20:37;;;;;;;21.45;7.55;;;0.10;97.60;;;;;;5003303;28;20120;-73
2023/04/27 04:23:03;;;;;;;17.52;7.15;;;0.10;97.60;;;;;;4997480;28;20069;-71
2023/04/27 04:25:28;;;;;;;21.33;7.13;;;0.10;97.60;;;;;;5003719;28;20115;-72
2023/04/27 04:27:53;;;;;;;18.60;6.88;;;0.10;97.60;;;;;;5006803;28;20042;-75
2023/04/27 04:30:19;;;;;;;20.30;7.47;;;0.10;97.60;;;;;;4999231;28;20048;-74
2023/04/27 04:32:45;;;;;;;22.90;7.03;;;0.10;97.60;;;;;;4990952;28;20064;-73
2023/04/27 04:35:10;;;;;;;24.83;8.30;;;0.10;97.70;;;;;;4991653;28;20033;-74
2023/04/27 04:37:36;;;;;;;19.77;7.80;;;0.20;97.70;;;;;;5003002;28;20050;-74
2023/04/27 04:40:07;;;;;;;20.63;7.75;;;0.30;97.70;;;;;;5004746;28;20100;-73
2023/04/27 04:42:34;;;;;;;22.27;8.07;;;0.50;97.80;;;;;;4997459;28;20045;-74
2023/04/27 04:45:01;;;;;;;24.00;8.30;;;0.60;97.80;;;;;;5000534;28;20091;-73
2023/04/27 04:47:26;;;;;;;30.20;9.18;;;0.70;97.60;;;;;;4999587;28;20038;-74
2023/04/27 04:49:52;;;;;;;21.88;7.47;;;0.60;97.60;;;;;;5000881;28;20108;-74
2023/04/27 04:52:17;;;;;;;22.65;7.72;;;0.70;97.60;;;;;;5005032;28;20566;-73
2023/04/27 04:54:42;;;;;;;21.60;7.65;;;0.70;97.60;;;;;;5006241;28;20105;-75
2023/04/27 04:57:08;;;;;;;20.23;8.32;;;0.70;97.50;;;;;;5003950;28;20407;-74
2023/04/27 04:59:33;;;;;;;18.95;8.30;;;0.70;97.50;;;;;;4999087;28;20049;-76
2023/04/27 05:01:59;;;;;;;28.15;8.93;;;0.80;97.50;;;;;;5003895;28;20082;-77
2023/04/27 05:04:25;;;;;;;24.13;9.07;;;0.80;97.50;;;;;;5003828;28;20026;-77
2023/04/27 05:06:51;;;;;;;23.65;8.40;;;0.80;97.50;;;;;;5005376;28;20059;-74
2023/04/27 05:09:17;;;;;;;22.23;8.10;;;0.80;97.40;;;;;;5005016;28;20145;-74
2023/04/27 05:11:42;;;;;;;23.98;9.07;;;0.80;97.40;;;;;;5007670;28;20117;-74
2023/04/27 05:14:08;;;;;;;17.92;8.07;;;0.80;97.50;;;;;;5004330;28;20041;-74
2023/04/27 05:16:33;;;;;;;22.50;8.55;;;0.90;97.50;;;;;;5004764;28;20172;-74
2023/04/27 05:18:59;;;;;;;22.98;8.48;;;0.90;97.50;;;;;;5008882;28;20403;-76
2023/04/27 05:21:24;;;;;;;24.52;8.07;;;1.00;97.50;;;;;;5004654;28;20078;-78
2023/04/27 05:23:50;;;;;;;26.20;9.02;;;1.00;97.50;;;;;;5008784;28;20044;-75
2023/04/27 05:26:17;;;;;;;24.15;9.38;;;1.10;97.40;;;;;;5006458;28;20070;-76
2023/04/27 05:28:43;;;;;;;20.70;8.68;;;1.10;97.40;;;;;;5003520;28;20430;-76
2023/04/27 05:31:09;;;;;;;35.53;9.95;;;1.30;97.30;;;;;;5002373;28;20069;-77
2023/04/27 05:33:35;;;;;;;25.75;8.70;;;1.40;97.30;;;;;;4998862;28;20053;-76
2023/04/27 05:36:00;;;;;;;21.17;9.10;;;1.40;97.30;;;;;;5002944;28;20133;-76
2023/04/27 05:38:26;;;;;;;25.25;8.93;;;1.60;97.30;;;;;;5005545;28;20049;-75
2023/04/27 05:40:56;;;;;;;27.83;8.98;;;1.60;97.10;;;;;;4998104;28;20052;-75
2023/04/27 05:43:22;;;;;;;26.33;9.40;;;1.70;97.00;;;;;;4990712;28;20430;-76
2023/04/27 05:45:48;;;;;;;25.35;9.73;;;1.90;96.80;;;;;;4998225;28;20346;-74
2023/04/27 05:48:13;;;;;;;31.48;10.10;;;2.00;96.70;;;;;;4998012;28;20046;-74
2023/04/27 05:50:39;;;;;;;34.60;10.25;;;2.10;96.50;;;;;;4996653;28;20068;-75
2023/04/27 05:53:05;;;;;;;28.85;10.13;;;2.20;96.40;;;;;;5002990;28;20027;-75
2023/04/27 05:55:31;;;;;;;28.67;10.70;;;2.60;96.10;;;;;;5006168;28;20022;-74
2023/04/27 05:57:56;;;;;;;27.73;9.75;;;2.80;95.50;;;;;;5002278;28;20042;-76
2023/04/27 06:00:22;;;;;;;27.83;10.38;;;3.20;95.00;;;;;;5002011;28;20104;-76
2023/04/27 06:02:47;;;;;;;23.95;8.57;;;3.40;93.90;;;;;;5000860;28;20106;-77
2023/04/27 06:05:13;;;;;;;19.55;8.65;;;3.50;93.30;;;;;;4997663;28;20056;-75
2023/04/27 06:07:38;;;;;;;20.50;8.35;;;3.70;92.70;;;;;;4995184;28;20038;-77
2023/04/27 06:10:05;;;;;;;23.30;7.85;;;3.80;92.00;;;;;;5006952;28;20597;-77
2023/04/27 06:12:31;;;;;;;18.80;7.60;;;3.90;91.90;;;;;;4999048;28;20057;-77
2023/04/27 06:14:56;;;;;;;12.70;6.22;;;4.00;91.40;;;;;;5002539;28;20025;-76
2023/04/27 06:17:22;;;;;;;15.18;6.85;;;4.00;91.20;;;;;;4996078;28;20135;-77
2023/04/27 06:19:47;;;;;;;11.57;6.38;;;4.10;91.20;;;;;;5001570;28;20041;-77
2023/04/27 06:22:13;;;;;;;11.02;5.47;;;4.10;91.10;;;;;;5004754;28;20030;-77
2023/04/27 06:24:38;;;;;;;13.07;6.03;;;4.20;90.90;;;;;;4997908;28;20037;-76
2023/04/27 06:27:04;;;;;;;13.13;5.88;;;4.20;90.20;;;;;;4995857;28;20045;-76
2023/04/27 06:29:30;;;;;;;12.75;5.60;;;4.30;90.20;;;;;;5002080;28;20075;-77
2023/04/27 06:31:55;;;;;;;11.57;5.32;;;4.30;90.20;;;;;;5002579;28;20036;-76
2023/04/27 06:34:21;;;;;;;12.82;5.70;;;4.30;90.30;;;;;;5007856;28;20382;-77
2023/04/27 06:36:46;;;;;;;8.75;4.50;;;4.20;90.00;;;;;;5002016;28;20026;-77
2023/04/27 06:39:12;;;;;;;7.85;4.60;;;4.10;90.50;;;;;;5001749;28;20522;-77
2023/04/27 06:41:37;;;;;;;14.00;4.65;;;4.10;90.40;;;;;;4999404;28;20033;-77
2023/04/27 06:44:02;;;;;;;9.73;4.60;;;4.30;90.80;;;;;;5002317;28;20057;-77
2023/04/27 06:46:28;;;;;;;10.13;4.90;;;4.40;90.10;;;;;;5008870;28;20034;-77
2023/04/27 06:48:53;;;;;;;17.08;5.20;;;4.60;89.30;;;;;;5002599;28;20308;-77
2023/04/27 06:51:19;;;;;;;10.75;5.10;;;4.80;89.10;;;;;;5002490;28;20041;-78
2023/04/27 06:53:44;;;;;;;7.95;4.40;;;5.00;88.80;;;;;;5003234;28;20117;-77
2023/04/27 06:56:11;;;;;;;10.52;4.45;;;5.00;87.60;;;;;;5002443;28;20037;-76
2023/04/27 06:58:36;;;;;;;11.02;5.00;;;5.20;87.70;;;;;;4993303;28;20489;-78
2023/04/27 07:01:02;;;;;;;12.75;4.15;;;5.40;87.30;;;;;;4995507;28;20070;-77
2023/04/27 07:03:28;;;;;;;7.47;4.00;;;5.60;86.60;;;;;;4997304;28;20350;-74
2023/04/27 07:05:56;;;;;;;11.20;3.83;;;5.80;86.30;;;;;;4996006;28;20041;-75
2023/04/27 07:08:21;;;;;;;7.22;3.42;;;6.10;86.20;;;;;;4996043;28;20022;-73
2023/04/27 07:10:47;;;;;;;7.43;3.65;;;6.30;84.60;;;;;;5003261;28;20427;-75
2023/04/27 07:13:12;;;;;;;8.38;3.90;;;6.40;84.20;;;;;;5011266;28;20171;-76
2023/04/27 07:15:38;;;;;;;11.68;4.32;;;6.60;83.90;;;;;;5001933;28;20038;-72
2023/04/27 07:18:04;;;;;;;6.57;3.65;;;6.70;83.10;;;;;;5002862;28;20120;-73
2023/04/27 07:20:29;;;;;;;9.32;3.38;;;7.00;84.20;;;;;;5008896;28;20033;-76
2023/04/27 07:22:55;;;;;;;5.82;3.03;;;7.10;81.90;;;;;;5018410;28;20108;-73
2023/04/27 07:25:21;;;;;;;5.82;2.67;;;7.30;81.10;;;;;;5003135;28;20090;-74
2023/04/27 07:27:46;;;;;;;11.13;2.97;;;7.40;80.30;;;;;;5002460;28;20427;-75
2023/04/27 07:30:13;;;;;;;2.92;1.83;;;7.60;80.20;;;;;;5005686;28;20140;-73
2023/04/27 07:32:41;;;;;;;8.07;2.40;;;7.70;77.00;;;;;;5005178;28;20026;-74
2023/04/27 07:35:08;;;;;;;4.30;1.77;;;7.90;76.30;;;;;;5006414;28;20120;-73
2023/04/27 07:37:34;;;;;;;4.22;1.75;;;8.10;74.20;;;;;;5009562;28;20151;-73
2023/04/27 07:40:13;;;;;;;5.80;1.92;;;8.40;73.40;;;;;;5008182;28;20140;-74
2023/04/27 07:42:40;;;;;;;3.40;2.00;;;8.40;72.50;;;;;;5006717;28;20059;-73
2023/04/27 07:45:06;;;;;;;4.38;1.90;;;8.60;71.90;;;;;;5001151;28;20191;-74
2023/04/27 07:47:32;;;;;;;4.75;2.13;;;8.10;71.10;;;;;;5011086;28;20163;-74
2023/04/27 07:49:57;;;;;;;3.65;1.77;;;8.00;71.30;;;;;;5000636;28;20509;-74
2023/04/27 07:52:23;;;;;;;5.10;1.80;;;7.80;72.90;;;;;;5005790;28;20030;-73
2023/04/27 07:54:48;;;;;;;5.72;1.50;;;7.80;72.10;;;;;;5003156;28;20374;-77
2023/04/27 07:57:14;;;;;;;6.18;1.50;;;8.10;69.60;;;;;;5001044;28;20131;-77
2023/04/27 07:59:39;;;;;;;5.10;1.55;;;8.10;69.10;;;;;;5008196;28;20350;-74
2023/04/27 08:02:05;;;;;;;6.30;1.52;;;8.20;68.00;;;;;;5003830;28;20046;-74
2023/04/27 08:04:30;;;;;;;3.63;1.70;;;8.60;68.50;;;;;;4995754;28;20056;-77
2023/04/27 08:06:56;;;;;;;4.43;1.48;;;9.10;68.70;;;;;;4999315;28;20053;-74
2023/04/27 08:09:21;;;;;;;4.97;1.60;;;9.20;66.80;;;;;;5001182;28;20041;-73
2023/04/27 08:11:47;;;;;;;5.75;1.83;;;9.50;66.20;;;;;;5005031;28;20018;-73
2023/04/27 08:14:12;;;;;;;4.47;1.42;;;9.40;65.60;;;;;;5008961;28;20045;-74
2023/04/27 08:16:42;;;;;;;6.88;1.98;;;8.90;65.90;;;;;;5001723;28;20489;-73
2023/04/27 08:19:09;;;;;;;4.85;2.00;;;9.60;67.60;;;;;;5001516;28;20101;-73
2023/04/27 08:21:37;;;;;;;3.47;1.52;;;9.90;65.10;;;;;;5007177;28;20042;-75
2023/04/27 08:24:04;;;;;;;4.63;1.80;;;10.10;63.70;;;;;;4997656;28;20065;-74
2023/04/27 08:26:30;;;;;;;8.52;2.00;;;9.70;65.00;;;;;;5005406;28;20030;-74
2023/04/27 08:28:56;;;;;;;5.13;1.70;;;9.10;65.70;;;;;;5006566;28;20130;-72
2023/04/27 08:31:22;;;;;;;4.72;1.60;;;8.60;65.40;;;;;;5003945;28;20045;-73
2023/04/27 08:33:47;;;;;;;5.47;1.75;;;8.90;68.50;;;;;;5001132;28;20411;-72
2023/04/27 08:36:13;;;;;;;6.40;2.10;;;9.60;64.10;;;;;;5004712;28;20125;-73
2023/04/27 08:38:38;;;;;;;8.15;1.95;;;9.70;61.60;;;;;;5005758;28;20050;-72
2023/04/27 08:41:04;;;;;;;4.38;1.40;;;10.30;60.60;;;;;;5016003;28;20419;-73
2023/04/27 08:43:34;;;;;;;6.28;2.17;;;10.60;58.80;;;;;;5003359;28;20036;-73
2023/04/27 08:46:00;;;;;;;4.72;1.92;;;10.50;60.50;;;;;;4999803;28;20070;-74
2023/04/27 08:48:25;;;;;;;4.60;1.60;;;10.70;58.70;;;;;;4996541;28;20121;-73
2023/04/27 08:50:52;;;;;;;2.60;1.50;;;10.00;59.20;;;;;;5006250;28;20022;-73
2023/04/27 08:53:21;;;;;;;8.82;1.98;;;10.00;60.60;;;;;;5005894;28;20032;-73
2023/04/27 08:55:46;;;;;;;5.75;1.70;;;10.60;60.60;;;;;;4999302;28;20396;-75
2023/04/27 08:58:12;;;;;;;6.32;1.90;;;11.30;59.50;;;;;;5015796;28;20352;-73
2023/04/27 09:00:40;;;;;;;3.95;1.88;;;11.50;58.50;;;;;;5010110;28;20053;-71
2023/04/27 09:03:06;;;;;;;5.38;1.85;;;10.90;57.20;;;;;;5001609;28;20362;-72
2023/04/27 09:05:32;;;;;;;3.28;1.50;;;10.50;58.20;;;;;;5002124;28;20077;-71
2023/04/27 09:08:05;;;;;;;4.70;1.67;;;10.10;59.10;;;;;;5009468;28;20027;-73
2023/04/27 09:10:46;;;;;;;3.75;1.60;;;10.40;58.40;;;;;;5003582;28;20042;-73
2023/04/27 09:13:11;;;;;;;4.35;1.63;;;10.30;59.00;;;;;;5001247;28;20041;-73
2023/04/27 09:15:45;;;;;;;6.00;2.03;;;10.50;60.40;;;;;;5001466;28;20049;-72
2023/04/27 09:18:20;;;;;;;6.13;1.90;;;10.50;60.70;;;;;;5006473;28;20188;-72
2023/04/27 09:20:48;;;;;;;5.45;2.00;;;10.40;59.20;;;;;;5012564;28;20025;-73
2023/04/27 09:23:30;;;;;;;3.70;1.80;;;10.80;58.70;;;;;;5004680;28;20055;-73
2023/04/27 09:26:01;;;;;;;4.03;1.83;;;11.30;55.40;;;;;;5000857;28;20030;-72
2023/04/27 09:28:27;;;;;;;4.78;1.85;;;12.00;53.90;;;;;;4998390;28;20033;-72
2023/04/27 09:30:58;;;;;;;4.32;1.95;;;11.80;52.90;;;;;;5004718;28;20049;-72
2023/04/27 09:33:26;;;;;;;4.65;2.05;;;11.40;53.40;;;;;;5000531;28;20169;-71
2023/04/27 09:35:52;;;;;;;3.95;1.90;;;10.90;56.50;;;;;;5005214;28;20030;-73
2023/04/27 09:38:19;;;;;;;3.17;1.50;;;10.80;58.40;;;;;;5007158;28;20037;-73
2023/04/27 09:40:46;;;;;;;3.53;1.70;;;10.30;56.10;;;;;;4994260;28;20065;-73
2023/04/27 09:43:11;;;;;;;4.35;1.55;;;10.10;57.90;;;;;;5002277;28;20034;-73
2023/04/27 09:45:37;;;;;;;3.67;2.08;;;10.20;58.20;;;;;;5010214;28;20080;-73
2023/04/27 09:48:06;;;;;;;3.63;2.08;;;10.30;58.10;;;;;;5002595;28;20065;-73
2023/04/27 09:50:36;;;;;;;3.80;1.90;;;10.60;57.50;;;;;;5001102;28;20076;-73
2023/04/27 09:53:07;;;;;;;4.88;2.20;;;10.50;57.10;;;;;;5006818;28;20523;-73
2023/04/27 09:55:47;;;;;;;3.70;1.83;;;10.40;57.10;;;;;;5008074;28;20092;-73
2023/04/27 09:58:40;;;;;;;4.30;2.10;;;10.10;58.90;;;;;;5007252;28;20436;-74
2023/04/27 10:01:24;;;;;;;3.67;2.22;;;9.50;59.10;;;;;;5007140;28;20312;-73
2023/04/27 10:04:20;;;;;;;9.48;1.92;;;9.80;60.10;;;;;;5001406;28;20022;-73
2023/04/27 10:07:03;;;;;;;5.65;1.92;;;10.00;59.50;;;;;;4994662;28;20031;-72
2023/04/27 10:09:46;;;;;;;3.83;1.90;;;10.10;60.00;;;;;;5010831;28;20150;-74
2023/04/27 10:12:21;;;;;;;5.90;1.90;;;10.10;58.10;;;;;;5001710;28;20746;-73
2023/04/27 10:14:51;;;;;;;5.93;1.95;;;10.40;57.80;;;;;;4996819;28;20041;-73
2023/04/27 10:17:17;;;;;;;5.30;2.15;;;10.30;55.50;;;;;;5000019;28;20479;-73
2023/04/27 10:19:57;;;;;;;6.90;2.00;;;10.10;57.40;;;;;;5000190;28;20076;-75
2023/04/27 10:22:23;;;;;;;6.60;1.90;;;9.90;56.80;;;;;;4999499;28;20021;-77
2023/04/27 10:24:50;;;;;;;5.85;1.70;;;9.90;55.30;;;;;;4999466;28;20044;-77
2023/04/27 10:27:22;;;;;;;4.93;2.15;;;9.80;55.30;;;;;;4998882;28;20060;-74
2023/04/27 10:29:49;;;;;;;5.35;1.90;;;9.90;56.30;;;;;;5003142;28;20045;-72
2023/04/27 10:32:23;;;;;;;3.92;1.77;;;10.00;57.20;;;;;;4990142;28;20034;-73
2023/04/27 10:35:01;;;;;;;4.30;1.63;;;10.10;57.00;;;;;;4996999;28;20049;-73
2023/04/27 10:37:41;;;;;;;7.07;2.17;;;10.20;57.60;;;;;;5002463;28;20404;-78
2023/04/27 10:40:09;;;;;;;5.88;2.30;;;10.40;58.00;;;;;;4999957;28;20108;-71
2023/04/27 10:42:35;;;;;;;6.82;2.40;;;10.60;56.90;;;;;;5004623;28;20037;-76
2023/04/27 10:45:03;;;;;;;6.03;2.50;;;11.50;55.30;;;;;;5002296;28;20080;-75
2023/04/27 10:47:37;;;;;;;5.00;1.85;;;11.30;54.50;;;;;;5002673;28;20038;-71
2023/04/27 10:50:05;;;;;;;3.72;2.10;;;11.00;54.80;;;;;;4999896;28;20022;-73
2023/04/27 10:52:31;;;;;;;3.70;2.20;;;10.80;56.50;;;;;;5005883;28;20107;-72
2023/04/27 10:54:56;;;;;;;4.50;1.92;;;10.70;56.30;;;;;;5000167;28;20046;-72
2023/04/27 10:57:22;;;;;;;4.32;2.38;;;10.60;55.90;;;;;;5003917;28;20079;-72
2023/04/27 10:59:52;;;;;;;4.93;1.73;;;10.50;55.90;;;;;;5003020;28;20042;-72
2023/04/27 11:02:26;;;;;;;4.20;2.30;;;10.10;55.40;;;;;;5003873;28;20366;-74
2023/04/27 11:04:51;;;;;;;4.40;2.05;;;9.90;56.50;;;;;;5002515;28;20057;-71
2023/04/27 11:07:24;;;;;;;7.13;2.38;;;10.00;58.00;;;;;;5008793;28;20104;-69
2023/04/27 11:09:50;;;;;;;6.03;2.35;;;9.90;58.00;;;;;;5001801;28;20432;-69
2023/04/27 11:12:15;;;;;;;5.03;2.00;;;9.90;58.30;;;;;;4998984;28;20041;-70
2023/04/27 11:14:41;;;;;;;7.32;2.20;;;9.80;59.50;;;;;;5005100;28;20422;-69
2023/04/27 11:17:07;;;;;;;6.68;2.55;;;9.80;59.40;;;;;;5002182;28;20038;-70
2023/04/27 11:19:44;;;;;;;9.05;2.67;;;10.00;59.60;;;;;;5009270;28;20055;-70
2023/04/27 11:22:09;;;;;;;4.15;2.10;;;11.00;58.20;;;;;;5003909;28;20430;-69
2023/04/27 11:24:35;;;;;;;4.80;2.30;;;11.00;58.30;;;;;;5001184;28;20025;-69
2023/04/27 11:27:01;;;;;;;7.43;2.58;;;11.40;57.50;;;;;;5003650;28;20403;-70
2023/04/27 11:29:37;;;;;;;4.47;2.08;;;11.50;56.80;;;;;;5000556;28;20084;-69
2023/04/27 11:32:03;;;;;;;7.28;2.03;;;12.10;53.20;;;;;;5003721;28;20489;-69
2023/04/27 11:34:33;;;;;;;4.80;2.13;;;12.00;52.20;;;;;;5000709;28;20058;-70
2023/04/27 11:37:01;;;;;;;3.70;1.90;;;11.90;52.70;;;;;;5003042;28;20034;-70
2023/04/27 11:39:27;;;;;;;2.95;1.60;;;11.70;52.70;;;;;;5000897;28;20080;-72
2023/04/27 11:41:53;;;;;;;7.80;2.00;;;11.60;51.20;;;;;;5003997;28;20300;-72
2023/04/27 11:44:25;;;;;;;5.28;1.75;;;11.70;52.30;;;;;;5002085;28;20044;-75
2023/04/27 11:46:52;;;;;;;5.50;2.08;;;11.60;52.30;;;;;;5001409;28;20057;-73
2023/04/27 11:49:17;;;;;;;5.78;2.20;;;12.80;52.50;;;;;;5000199;28;20033;-74
2023/04/27 11:51:45;;;;;;;4.85;2.10;;;13.00;50.60;;;;;;4997197;28;20026;-74
2023/04/27 11:54:11;;;;;;;4.38;2.00;;;13.50;48.70;;;;;;5001245;28;20944;-73
2023/04/27 11:56:39;;;;;;;4.85;1.98;;;12.80;49.40;;;;;;5000881;28;20486;-73
2023/04/27 11:59:05;;;;;;;4.50;2.17;;;12.60;51.00;;;;;;5001661;28;20034;-73
2023/04/27 12:01:32;;;;;;;6.70;2.20;;;12.30;51.50;;;;;;4996840;28;20081;-74
2023/04/27 12:03:58;;;;;;;6.55;2.40;;;12.10;51.90;;;;;;4997263;28;20447;-73
2023/04/27 12:06:25;;;;;;;5.68;2.50;;;12.70;53.00;;;;;;5003327;28;20517;-73
2023/04/27 12:08:51;;;;;;;6.35;2.65;;;12.30;50.60;;;;;;5002322;28;20080;-73
2023/04/27 12:11:17;;;;;;;6.45;1.92;;;12.60;51.50;;;;;;5004311;28;20104;-77
2023/04/27 12:13:42;;;;;;;7.30;2.40;;;12.50;48.90;;;;;;5002561;28;20145;-77
2023/04/27 12:16:08;;;;;;;3.60;2.38;;;12.40;50.30;;;;;;4992279;28;20038;-74
2023/04/27 12:18:33;;;;;;;3.97;1.90;;;12.60;51.50;;;;;;4995410;28;20088;-74
2023/04/27 12:20:59;;;;;;;6.13;2.13;;;12.10;51.10;;;;;;4996893;28;20065;-75
2023/04/27 12:23:24;;;;;;;5.97;2.30;;;11.90;52.50;;;;;;4996698;28;20089;-73
2023/04/27 12:25:50;;;;;;;5.45;2.20;;;11.30;51.50;;;;;;5000775;28;20026;-74
2023/04/27 12:28:17;;;;;;;5.28;1.60;;;11.20;52.90;;;;;;5005413;28;20575;-74
2023/04/27 12:30:43;;;;;;;5.97;2.50;;;11.20;54.10;;;;;;5000176;28;20050;-73
2023/04/27 12:33:10;;;;;;;4.05;2.10;;;11.10;54.70;;;;;;4996904;28;20058;-74
2023/04/27 12:35:36;;;;;;;3.15;2.10;;;11.10;54.60;;;;;;5004071;28;20018;-74
2023/04/27 12:38:02;;;;;;;7.90;2.25;;;11.10;53.60;;;;;;5003499;28;20034;-74
2023/04/27 12:40:28;;;;;;;7.72;1.83;;;11.20;54.00;;;;;;5000558;28;20030;-74
2023/04/27 12:42:53;;;;;;;4.05;2.10;;;11.50;53.50;;;;;;5001446;28;20533;-76
2023/04/27 12:45:19;;;;;;;5.30;2.15;;;11.50;52.40;;;;;;5006667;28;20029;-75